createdAt,value
2022-11-13T00:02:27.677Z,102847.53
2022-11-13T00:07:45.609Z,102847.47
2022-11-13T00:13:06.479Z,102840.50
2022-11-13T00:18:24.495Z,102843.34
2022-11-13T00:23:42.712Z,102844.50
2022-11-13T00:29:02.371Z,102843.38
2022-11-13T00:34:45.954Z,102840.63
2022-11-13T00:39:59.482Z,102845.22
2022-11-13T00:45:23.261Z,102844.44
2022-11-13T00:50:43.299Z,102844.25
2022-11-13T00:56:06.073Z,102850.06
2022-11-13T01:01:30.933Z,102847.59
2022-11-13T01:06:52.058Z,102841.25
2022-11-13T01:12:10.567Z,102855.66
2022-11-13T01:17:27.350Z,102852.47
2022-11-13T01:22:45.143Z,102852.00
2022-11-13T01:28:04.885Z,102857.50
2022-11-13T01:33:28.158Z,102848.09
2022-11-13T01:38:46.878Z,102844.97
2022-11-13T01:44:06.750Z,102841.94
2022-11-13T01:49:32.680Z,102840.06
2022-11-13T01:54:56.327Z,102839.56
2022-11-13T02:00:16.118Z,102832.91
2022-11-13T02:05:37.090Z,102825.59
2022-11-13T02:10:59.244Z,102823.69
2022-11-13T02:16:22.820Z,102827.16
2022-11-13T02:21:44.313Z,102821.13
2022-11-13T02:27:03.758Z,102824.13
2022-11-13T02:32:23.061Z,102824.16
2022-11-13T02:37:42.978Z,102806.16
2022-11-13T02:43:03.641Z,102829.19
2022-11-13T02:48:27.948Z,102828.72
2022-11-13T02:53:48.509Z,102830.03
2022-11-13T02:59:06.943Z,102822.41
2022-11-13T03:04:24.185Z,102822.50
2022-11-13T03:09:44.365Z,102822.59
2022-11-13T03:15:04.736Z,102824.28
2022-11-13T03:20:21.179Z,102830.47
2022-11-13T03:25:44.247Z,102830.47
2022-11-13T03:31:01.932Z,102828.25
2022-11-13T03:36:20.000Z,102826.59
2022-11-13T03:41:38.770Z,102820.06
2022-11-13T03:46:55.867Z,102826.94
2022-11-13T03:52:17.782Z,102818.06
2022-11-13T03:57:34.512Z,102808.63
2022-11-13T04:02:53.696Z,102806.81
2022-11-13T04:08:10.997Z,102807.28
2022-11-13T04:13:28.258Z,102810.88
2022-11-13T04:18:45.180Z,102813.38
2022-11-13T04:24:03.036Z,102796.84
2022-11-13T04:29:19.272Z,102798.25
2022-11-13T04:34:35.107Z,102795.94
2022-11-13T04:39:53.825Z,102793.34
2022-11-13T04:45:13.938Z,102789.31
2022-11-13T04:50:32.940Z,102791.44
2022-11-13T04:55:49.239Z,102782.69
2022-11-13T05:01:08.239Z,102783.06
2022-11-13T05:06:25.715Z,102790.63
2022-11-13T05:11:42.968Z,102793.72
2022-11-13T05:17:02.821Z,102792.47
2022-11-13T05:22:20.237Z,102788.97
2022-11-13T05:27:37.572Z,102797.34
2022-11-13T05:32:55.203Z,102798.31
2022-11-13T05:38:12.526Z,102796.84
2022-11-13T05:43:30.139Z,102795.47
2022-11-13T05:48:48.486Z,102795.59
2022-11-13T05:54:07.400Z,102797.69
2022-11-13T05:59:25.497Z,102806.44
2022-11-13T06:04:44.178Z,102801.84
2022-11-13T06:10:05.004Z,102813.00
2022-11-13T06:15:54.799Z,102810.19
2022-11-13T06:21:14.477Z,102803.72
2022-11-13T06:26:32.070Z,102817.19
2022-11-13T06:31:52.023Z,102813.31
2022-11-13T06:37:09.262Z,102813.75
2022-11-13T06:42:26.480Z,102819.31
2022-11-13T06:47:44.433Z,102815.78
2022-11-13T06:53:03.633Z,102812.47
2022-11-13T06:58:23.591Z,102815.72
2022-11-13T07:03:40.309Z,102817.66
2022-11-13T07:09:01.306Z,102813.03
2022-11-13T07:14:18.409Z,102807.94
2022-11-13T07:19:34.281Z,102807.78
2022-11-13T07:24:54.022Z,102808.25
2022-11-13T07:30:11.983Z,102792.50
2022-11-13T07:35:30.789Z,102794.69
2022-11-13T07:40:49.502Z,102788.72
2022-11-13T07:46:05.666Z,102794.97
2022-11-13T07:51:26.486Z,102796.34
2022-11-13T07:56:44.725Z,102793.13
2022-11-13T08:02:03.243Z,102790.44
2022-11-13T08:07:23.159Z,102790.88
2022-11-13T08:12:42.316Z,102793.03
2022-11-13T08:17:59.322Z,102792.69
2022-11-13T08:23:15.978Z,102787.94
2022-11-13T08:28:37.434Z,102781.44
2022-11-13T08:33:54.610Z,102780.47
2022-11-13T08:39:11.904Z,102774.50
2022-11-13T08:44:29.257Z,102776.72
2022-11-13T08:49:48.804Z,102783.03
2022-11-13T08:55:06.296Z,102771.09
2022-11-13T09:00:23.301Z,102780.22
2022-11-13T09:05:42.777Z,102774.22
2022-11-13T09:11:04.999Z,102760.44
2022-11-13T09:16:21.806Z,102759.53
2022-11-13T09:21:39.526Z,102756.59
2022-11-13T09:26:56.539Z,102742.97
2022-11-13T09:32:16.657Z,102745.06
2022-11-13T09:37:37.238Z,102726.19
2022-11-13T09:42:56.747Z,102730.88
2022-11-13T09:48:15.841Z,102726.41
2022-11-13T09:53:43.334Z,102719.97
2022-11-13T09:59:15.430Z,102711.84
2022-11-13T10:04:37.444Z,102709.59
2022-11-13T10:10:18.255Z,102701.88
2022-11-13T10:15:49.625Z,102701.41
2022-11-13T10:21:09.705Z,102694.88
2022-11-13T10:26:33.403Z,102689.50
2022-11-13T10:31:59.999Z,102680.78
2022-11-13T10:37:44.748Z,102667.91
2022-11-13T10:43:05.895Z,102664.94
2022-11-13T10:48:26.897Z,102661.09
2022-11-13T10:53:46.024Z,102651.75
2022-11-13T10:59:12.731Z,102640.81
2022-11-13T11:04:33.742Z,102638.75
2022-11-13T11:09:50.729Z,102620.22
2022-11-13T11:15:26.366Z,102617.22
2022-11-13T11:20:47.761Z,102617.50
2022-11-13T11:26:17.044Z,102620.31
2022-11-13T11:31:37.850Z,102622.31
2022-11-13T11:36:58.313Z,102608.31
2022-11-13T11:42:27.367Z,102603.09
2022-11-13T11:47:47.691Z,102607.34
2022-11-13T11:53:08.978Z,102587.50
2022-11-13T11:58:40.417Z,102594.22
2022-11-13T12:04:11.964Z,102589.53
2022-11-13T12:09:39.696Z,102584.72
2022-11-13T12:15:06.718Z,102580.91
2022-11-13T12:20:32.720Z,102578.94
2022-11-13T12:25:53.783Z,102582.66
2022-11-13T12:31:30.890Z,102576.38
2022-11-13T12:36:51.415Z,102573.91
2022-11-13T12:42:22.788Z,102581.66
2022-11-13T12:47:40.116Z,102584.44
2022-11-13T12:53:00.891Z,102568.88
2022-11-13T12:58:27.070Z,102570.31
2022-11-13T13:04:00.471Z,102566.28
2022-11-13T13:09:36.339Z,102561.31
2022-11-13T13:15:03.509Z,102564.72
2022-11-13T13:20:21.595Z,102558.31
2022-11-13T13:25:38.756Z,102559.75
2022-11-13T13:30:57.855Z,102550.63
2022-11-13T13:36:36.438Z,102533.75
2022-11-13T13:41:53.804Z,102536.72
2022-11-13T13:47:12.141Z,102532.97
2022-11-13T13:52:35.177Z,102535.56
2022-11-13T13:58:00.301Z,102535.53
2022-11-13T14:03:21.184Z,102541.66
2022-11-13T14:08:37.148Z,102534.56
2022-11-13T14:13:57.355Z,102526.69
2022-11-13T14:19:17.016Z,102520.81
2022-11-13T14:24:47.534Z,102525.13
2022-11-13T14:30:09.999Z,102527.13
2022-11-13T14:35:34.412Z,102520.59
2022-11-13T14:40:54.111Z,102516.97
2022-11-13T14:46:30.130Z,102510.91
2022-11-13T14:51:58.029Z,102509.38
2022-11-13T14:57:17.513Z,102496.38
2022-11-13T15:02:36.695Z,102486.41
2022-11-13T15:07:55.337Z,102472.44
2022-11-13T15:13:12.363Z,102482.69
2022-11-13T15:18:30.553Z,102477.91
2022-11-13T15:23:48.445Z,102486.72
2022-11-13T15:29:05.601Z,102478.56
2022-11-13T15:34:23.112Z,102490.53
2022-11-13T15:39:41.786Z,102494.22
2022-11-13T15:45:04.726Z,102488.88
2022-11-13T15:50:24.577Z,102493.41
2022-11-13T15:55:41.224Z,102492.81
2022-11-13T16:01:00.664Z,102489.38
2022-11-13T16:06:19.499Z,102488.28
2022-11-13T16:11:36.577Z,102493.28
2022-11-13T16:16:55.434Z,102500.50
2022-11-13T16:22:19.880Z,102494.56
2022-11-13T16:33:32.276Z,102488.13
2022-11-13T16:38:57.024Z,102488.69
2022-11-13T16:44:15.549Z,102492.84
2022-11-13T16:55:43.438Z,102486.66
2022-11-13T17:01:06.049Z,102489.28
2022-11-13T17:06:28.341Z,102497.69
2022-11-13T17:11:45.804Z,102496.59
2022-11-13T17:17:27.514Z,102492.81
2022-11-13T17:22:55.209Z,102502.84
2022-11-13T17:28:18.967Z,102495.75
2022-11-13T17:33:51.306Z,102495.47
2022-11-13T17:39:18.125Z,102501.25
2022-11-13T17:50:46.618Z,102498.78
2022-11-13T17:56:11.081Z,102493.69
2022-11-13T18:01:27.864Z,102485.91
2022-11-13T18:06:47.064Z,102481.53
2022-11-13T18:12:04.152Z,102481.81
2022-11-13T18:17:24.894Z,102478.06
2022-11-13T18:22:46.519Z,102474.28
2022-11-13T18:28:04.012Z,102474.94
2022-11-13T18:33:27.672Z,102471.44
2022-11-13T18:38:46.393Z,102474.88
2022-11-13T18:44:05.038Z,102466.59
2022-11-13T18:49:25.370Z,102481.63
2022-11-13T18:54:45.307Z,102477.50
2022-11-13T19:00:12.442Z,102480.88
2022-11-13T19:05:30.711Z,102474.44
2022-11-13T19:10:55.037Z,102475.81
2022-11-13T19:16:33.189Z,102475.50
2022-11-13T19:21:52.651Z,102479.22
2022-11-13T19:27:10.267Z,102463.56
2022-11-13T19:32:29.666Z,102471.03
2022-11-13T19:37:57.827Z,102465.72
2022-11-13T19:43:16.151Z,102466.94
2022-11-13T19:48:35.154Z,102465.88
2022-11-13T19:53:55.945Z,102459.09
2022-11-13T19:59:24.810Z,102465.69
2022-11-13T20:04:49.324Z,102464.94
2022-11-13T20:10:07.200Z,102460.13
2022-11-13T20:15:25.058Z,102459.22
2022-11-13T20:20:47.387Z,102459.59
2022-11-13T20:26:11.519Z,102451.56
2022-11-13T20:31:36.727Z,102455.06
2022-11-13T20:36:58.159Z,102463.69
2022-11-13T20:42:16.307Z,102456.06
2022-11-13T20:47:35.149Z,102450.56
2022-11-13T20:52:54.340Z,102451.72
2022-11-13T20:58:11.979Z,102441.84
2022-11-13T21:03:46.170Z,102443.28
2022-11-13T21:09:03.797Z,102428.19
2022-11-13T21:14:23.617Z,102433.16
2022-11-13T21:19:42.181Z,102434.91
2022-11-13T21:25:03.873Z,102432.16
2022-11-13T21:30:26.165Z,102436.81
2022-11-13T21:35:46.174Z,102433.28
2022-11-13T21:41:27.635Z,102436.81
2022-11-13T21:46:46.153Z,102429.75
2022-11-13T21:52:03.907Z,102426.44
2022-11-13T21:57:24.417Z,102426.75
2022-11-13T22:02:43.804Z,102427.06
2022-11-13T22:13:44.283Z,102423.75
2022-11-13T22:19:02.244Z,102425.19
2022-11-13T22:24:22.500Z,102420.88
2022-11-13T22:29:40.743Z,102423.09
2022-11-13T22:35:02.582Z,102425.97
2022-11-13T22:40:24.151Z,102425.28
2022-11-13T22:45:44.431Z,102411.81
2022-11-13T22:51:07.811Z,102419.00
2022-11-13T22:56:26.218Z,102408.00
2022-11-13T23:01:43.378Z,102400.44
2022-11-13T23:07:01.192Z,102399.06
2022-11-13T23:12:23.374Z,102394.88
2022-11-13T23:17:43.369Z,102390.50
2022-11-13T23:23:01.492Z,102393.03
2022-11-13T23:28:19.786Z,102383.81
2022-11-13T23:33:37.654Z,102388.53
2022-11-13T23:38:54.939Z,102382.91
2022-11-13T23:44:13.629Z,102381.22
2022-11-13T23:49:35.186Z,102379.63
2022-11-13T23:54:58.822Z,102382.59
